Flight Track Log - Related Links

Times and Time Zones

All times are in EDT time to prevent confusion due to time zone crossing. See the CES5104 flight status page for this flight to view local times or setup timezone preferences in your user account.

Time Position Orientation Groundspeed Altitude Reporting Facility
EDT Latitude Longitude Course Direction KTS MPH feet Rate Location/Type
Sat 09:35:00 PM 37.9495 117.8356 155° Southeast  Level Estimated
Sat 09:36:00 PM 37.8523 117.8908 156° South  Level Estimated
Sat 09:37:00 PM 37.7551 117.9457 156° South  Level Estimated
Sat 09:38:00 PM 37.6579 118.0006 156° South  Level Estimated
Sat 09:39:00 PM 37.5607 118.0553 156° South  Level Estimated
Sat 09:40:00 PM 37.4635 118.1098 156° South  Level Estimated
Sat 09:41:00 PM 37.3662 118.1642 156° South  Level Estimated
Sat 09:42:00 PM 37.2689 118.2185 156° South  Level Estimated
Sat 09:43:00 PM 37.1715 118.2726 156° South  Level Estimated
Sat 09:43:01 PM 37.3069 117.2103 169° South 493 567 37,100  Level FlightAware ADS-B (ZSQD / TAO)
Sat 09:43:31 PM 37.2381 117.2268 169° South 493 567 37,100  Level FlightAware ADS-B (ZSQD / TAO)
Sat 09:43:42 PM 37.2212 117.2308 169° South 492 566 37,100  Level FlightAware ADS-B (ZSQD / TAO)
Sat 09:44:32 PM 37.1037 117.2590 169° South 492 566 37,100  Level FlightAware ADS-B (ZSQD / TAO)
Sat 09:45:01 PM 37.0451 117.2731 169° South 491 565 37,100  Level FlightAware ADS-B (ZSQD / TAO)
Sat 09:45:28 PM 36.9820 117.2880 169° South 490 564 37,100  Level FlightAware ADS-B (ZSQD / TAO)
Sat 09:45:51 PM 36.9308 117.3003 169° South 490 564 37,100  Level FlightAware ADS-B (ZSQD / TAO)
Sat 09:46:31 PM 36.8366 117.3226 169° South 489 563 37,100 529 Level FlightAware ADS-B (ZSQD / TAO)
Sat 09:46:59 PM 36.7744 117.3373 169° South 486 559 37,700 1,200 Climbing FlightAware ADS-B (ZSQD / TAO)
Sat 09:47:31 PM 36.7052 117.3537 169° South 483 556 38,300 1,258 Climbing FlightAware ADS-B (ZSQD / TAO)
Sat 09:48:01 PM 36.6378 117.3696 169° South 479 551 39,000 686 Climbing FlightAware ADS-B (ZSQD / TAO)
Sat 09:48:41 PM 36.5509 117.3901 169° South 482 555 39,100 111 Climbing FlightAware ADS-B (ZSQD / TAO)
Sat 09:48:55 PM 36.5182 117.3977 169° South 482 555 39,100  Level FlightAware ADS-B (ZSQD / TAO)
Sat 09:49:41 PM 36.4176 117.4214 169° South 482 555 39,100  Level FlightAware ADS-B (ZSQD / TAO)
Sat 09:50:10 PM 36.3564 117.4357 169° South 482 555 39,100  Level FlightAware ADS-B (ZSQD / TAO)
Sat 09:50:41 PM 36.2859 117.4522 169° South 481 554 39,100  Level FlightAware ADS-B (ZSQD / TAO)
Sat 09:51:11 PM 36.2199 117.4676 169° South 481 554 39,100  Level FlightAware ADS-B (ZSQD / TAO)
Sat 09:51:42 PM 36.1538 117.4831 169° South 481 554 39,100  Level FlightAware ADS-B (ZSQD / TAO)
Sat 09:52:11 PM 36.0991 117.4958 169° South 480 552 39,100  Level FlightAware ADS-B (ZSQD / TAO)
Sat 09:52:41 PM 36.0229 117.5135 169° South 479 551 39,100  Level FlightAware ADS-B (ZSQD / TAO)
Sat 09:53:12 PM 35.9579 117.5286 169° South 478 550 39,100  Level FlightAware ADS-B (ZSQD / TAO)
Sat 09:53:24 PM 35.9296 117.5352 169° South 478 550 39,100  Level FlightAware ADS-B (ZSQD / TAO)
Sat 09:54:32 PM 35.7923 117.5669 169° South 476 548 39,100  Level FlightAware ADS-B (ZSQD / TAO)
Sat 09:55:18 PM 35.6834 117.5920 169° South 476 548 39,100  Level FlightAware ADS-B (ZSQD / TAO)
Sat 09:56:16 PM 35.5555 117.6215 169° South 479 551 39,100  Level FlightAware ADS-B (ZSQD / TAO)
Sat 09:56:22 PM 35.5443 117.6240 169° South 479 551 39,100  Level FlightAware ADS-B (ZSQD / TAO)
Sat 09:58:33 PM 35.2578 117.6895 169° South 479 551 39,100  Level FlightAware ADS-B (ZSQD / TAO)
Sat 10:05:06 PM 34.4078 117.9431 162° South 480 552 39,100  Level FlightAware ADS-B (ZSQD / TAO)
Sat 10:05:26 PM 34.3671 117.9582 162° South 479 551 39,100  Level FlightAware ADS-B (ZSQD / TAO)
Sat 10:06:57 PM 34.1749 118.0289 163° South 477 549 39,100  Level FlightAware ADS-B (ZSQD / TAO)
Sat 10:06:59 PM 34.1718 118.0301 163° South 477 549 39,100 -409 Level FlightAware ADS-B (ZSQD / TAO)
Sat 10:08:25 PM 33.9866 118.0974 163° South 478 550 38,500 -849 Descending FlightAware ADS-B (ZSQD / TAO)
Sat 10:45:08 PM 31.3440 121.1352 109° East 242 278 6,700 -872 Descending FlightAware ADS-B (ZSSS / SHA)
Sat 10:45:27 PM 31.3371 121.1579 109° East 251 289 6,200 -1,322 Descending FlightAware ADS-B (ZSSS / SHA)
Sat 10:46:07 PM 31.3187 121.2084 130° Southeast 248 285 5,400 -1,304 Descending FlightAware ADS-B (ZSSS / SHA)
Sat 10:46:13 PM 31.3125 121.2146 140° Southeast 247 284 5,200 -1,636 Descending FlightAware ADS-B (ZSSS / SHA)
Sat 10:46:18 PM 31.3077 121.2178 152° Southeast 246 283 5,100 -600 Descending FlightAware ADS-B (ZSSS / SHA)
Sat 10:46:23 PM 31.3025 121.2199 162° South 245 282 5,100 -667 Level FlightAware ADS-B (ZSSS / SHA)
Sat 10:46:27 PM 31.2974 121.2209 172° South 243 280 5,000 -300 Descending FlightAware ADS-B (ZSSS / SHA)
Sat 10:46:43 PM 31.2797 121.2222 177° South 241 277 5,000  Level FlightAware ADS-B (ZSSS / SHA)
Sat 10:47:01 PM 31.2599 121.2233 177° South 241 277 5,000  Level FlightAware ADS-B (ZSSS / SHA)
Sat 10:47:22 PM 31.2361 121.2243 177° South 242 278 5,000  Level FlightAware ADS-B (ZSSS / SHA)
Sat 10:47:43 PM 31.2124 121.2253 178° South 242 278 5,000  Level FlightAware ADS-B (ZSSS / SHA)
Sat 10:48:01 PM 31.1933 121.2261 177° South 242 278 5,000  Level FlightAware ADS-B (ZSSS / SHA)
Sat 10:48:21 PM 31.1779 121.2269 177° South 242 278 5,000  Level FlightAware ADS-B (ZSSL)
Sat 10:48:42 PM 31.1476 121.2290 170° South 244 281 5,000 -200 Level FlightAware ADS-B (ZSSL)
Sat 10:48:51 PM 31.1375 121.2320 161° South 244 281 4,900 -857 Descending FlightAware ADS-B (ZSSL)
Sat 10:49:03 PM 31.1240 121.2388 154° Southeast 244 281 4,700 -1,333 Descending FlightAware ADS-B (ZSSS / SHA)
Sat 10:49:18 PM 31.1086 121.2476 153° Southeast 244 281 4,300 -1,600 Descending FlightAware ADS-B (ZSSS / SHA)
Sat 10:49:33 PM 31.0948 121.2554 154° Southeast 239 275 3,900 -1,500 Descending FlightAware ADS-B (ZSSS / SHA)
Sat 10:49:42 PM 31.0902 121.2580 154° Southeast 238 274 3,700 -794 Descending FlightAware ADS-B (ZSSS / SHA)
Sat 10:52:42 PM 31.1098 121.3411 154° Southeast 238 274 1,400 -753 Descending FlightAware ADS-B (ZSSL)
Sat 10:53:25 PM 31.1380 121.3397 154° Southeast 238 274 900 -698 Descending FlightAware ADS-B (ZSSL)
Sat 10:55:00 PM 31.1979 121.3363 357° North  Level Estimated
Sat 10:56:00 PM 31.1979 121.3363 North  Level Estimated
Sat 10:57:00 PM 31.1979 121.3363 North  Level Estimated
Sat 10:58:00 PM 31.1979 121.3363 North  Level Estimated
Sat 10:59:00 PM 31.1979 121.3363 North  Level Estimated
Sat 11:00:00 PM 31.1979 121.3363 North  Level Estimated

Login

Don't have an account? Register now (free) for customized features, flight alerts, and more!